Tinnie, New Mexico
Current Conditions -  °F | °C
As of 8:55 PM on Sunday 23 Nov 2014 (Local Time) from KSRR Reporting Station
Clear Clear  
Wind Chill: 22°   Ceiling: Unl
Heat Index: 32°   Visibility: 10mi
Dew Point:   Wind: 14mph
Humidity: 32%   Direction: 300°WNW
Pressure: 30.03"   Gusts: 26mph
Location:  33.37°N, 105.23°W
Report Text: KSRR 240355Z AUTO 30012G23KT 10SM CLR 00/M15 A3003 RMK AO2
Loading
Personal Weather Stations






























Interactive Weather Map New forecast layout! Learn more

10-Day Weather Forecast

Advertisements
Track Severe Weather on mobile